createdAt,value
2023-02-20T00:02:22.456Z,0.70
2023-02-20T00:04:50.864Z,0.70
2023-02-20T00:07:19.232Z,0.72
2023-02-20T00:09:47.661Z,0.72
2023-02-20T00:12:16.126Z,0.72
2023-02-20T00:14:45.528Z,0.72
2023-02-20T00:17:13.963Z,0.70
2023-02-20T00:19:42.246Z,0.71
2023-02-20T00:22:10.564Z,0.72
2023-02-20T00:24:38.934Z,0.76
2023-02-20T00:27:07.237Z,0.81
2023-02-20T00:29:35.579Z,0.86
2023-02-20T00:32:04.199Z,0.88
2023-02-20T00:34:33.776Z,0.88
2023-02-20T00:37:02.083Z,0.88
2023-02-20T00:39:32.213Z,0.88
2023-02-20T00:42:00.591Z,0.89
2023-02-20T00:44:28.861Z,0.91
2023-02-20T00:46:57.267Z,0.92
2023-02-20T00:49:25.622Z,0.94
2023-02-20T00:51:54.275Z,0.96
2023-02-20T00:54:22.788Z,0.95
2023-02-20T00:56:51.184Z,0.95
2023-02-20T00:59:19.545Z,0.96
2023-02-20T01:01:49.163Z,0.97
2023-02-20T01:04:17.647Z,0.99
2023-02-20T01:06:46.026Z,1.00
2023-02-20T01:09:15.157Z,1.02
2023-02-20T01:11:44.998Z,1.03
2023-02-20T01:14:14.424Z,1.04
2023-02-20T01:16:51.575Z,1.08
2023-02-20T01:19:23.071Z,1.08
2023-02-20T01:21:52.083Z,1.10
2023-02-20T01:24:20.659Z,1.12
2023-02-20T01:26:50.120Z,1.12
2023-02-20T01:29:18.817Z,1.12
2023-02-20T01:31:49.794Z,1.12
2023-02-20T01:34:20.322Z,1.12
2023-02-20T01:36:51.606Z,1.13
2023-02-20T01:39:22.281Z,1.14
2023-02-20T01:41:55.589Z,1.16
2023-02-20T01:44:28.365Z,1.18
2023-02-20T01:46:58.755Z,1.18
2023-02-20T01:49:35.684Z,1.20
2023-02-20T01:52:07.553Z,1.21
2023-02-20T01:54:39.135Z,1.23
2023-02-20T01:57:12.497Z,1.24
2023-02-20T01:59:42.818Z,1.27
2023-02-20T02:02:12.055Z,1.30
2023-02-20T02:04:44.040Z,1.30
2023-02-20T02:07:13.017Z,1.29
2023-02-20T02:09:51.833Z,1.28
2023-02-20T02:12:21.593Z,1.27
2023-02-20T02:14:50.099Z,1.27
2023-02-20T02:17:21.373Z,1.28
2023-02-20T02:19:49.669Z,1.29
2023-02-20T02:22:55.090Z,1.30
2023-02-20T02:25:23.368Z,1.31
2023-02-20T02:28:18.864Z,1.30
2023-02-20T02:31:06.247Z,1.28
2023-02-20T02:34:12.889Z,1.27
2023-02-20T02:36:50.515Z,1.27
2023-02-20T02:39:30.359Z,1.28
2023-02-20T02:42:17.655Z,1.29
2023-02-20T02:45:04.453Z,1.29
2023-02-20T02:47:46.390Z,1.28
2023-02-20T02:50:27.398Z,1.27
2023-02-20T02:52:57.494Z,1.27
2023-02-20T02:55:34.020Z,1.25
2023-02-20T02:58:04.472Z,1.25
2023-02-20T03:00:40.032Z,1.26
2023-02-20T03:03:26.899Z,1.26
2023-02-20T03:06:01.013Z,1.26
2023-02-20T03:08:44.352Z,1.26
2023-02-20T03:11:20.809Z,1.26
2023-02-20T03:14:15.634Z,1.26
2023-02-20T03:16:48.588Z,1.24
2023-02-20T03:19:26.261Z,1.24
2023-02-20T03:21:57.806Z,1.24
2023-02-20T03:24:29.067Z,1.24
2023-02-20T03:27:01.221Z,1.23
2023-02-20T03:29:37.868Z,1.22
2023-02-20T03:32:30.639Z,1.23
2023-02-20T03:35:21.900Z,1.24
2023-02-20T03:38:10.728Z,1.24
2023-02-20T03:40:59.258Z,1.22
2023-02-20T03:43:33.340Z,1.20
2023-02-20T03:46:12.075Z,1.17
2023-02-20T03:48:51.168Z,1.13
2023-02-20T03:51:22.156Z,1.10
2023-02-20T03:54:16.603Z,1.08
2023-02-20T03:56:53.268Z,1.06
2023-02-20T03:59:46.601Z,1.05
2023-02-20T04:02:26.179Z,1.04
2023-02-20T04:04:59.718Z,1.02
2023-02-20T04:07:36.589Z,1.00
2023-02-20T04:10:10.320Z,1.00
2023-02-20T04:12:43.199Z,1.00
2023-02-20T04:15:13.102Z,1.00
2023-02-20T04:18:03.299Z,0.98
2023-02-20T04:20:32.808Z,0.95
2023-02-20T04:23:15.547Z,0.93
2023-02-20T04:25:49.939Z,0.93
2023-02-20T04:28:19.772Z,0.95
2023-02-20T04:30:59.835Z,0.96
2023-02-20T04:33:28.295Z,0.96
2023-02-20T04:36:01.045Z,0.97
2023-02-20T04:38:29.475Z,0.97
2023-02-20T04:40:58.360Z,0.97
2023-02-20T04:43:26.793Z,0.94
2023-02-20T04:45:55.908Z,0.91
2023-02-20T04:48:24.390Z,0.89
2023-02-20T04:50:53.893Z,0.91
2023-02-20T04:53:22.416Z,0.94
2023-02-20T04:55:50.902Z,0.93
2023-02-20T04:58:21.187Z,0.93
2023-02-20T05:01:12.517Z,0.91
2023-02-20T05:03:40.848Z,0.89
2023-02-20T05:06:09.265Z,0.86
2023-02-20T05:08:37.827Z,0.86
2023-02-20T05:11:06.139Z,0.84
2023-02-20T05:13:34.495Z,0.82
2023-02-20T05:16:03.070Z,0.80
2023-02-20T05:18:31.529Z,0.77
2023-02-20T05:21:18.934Z,0.75
2023-02-20T05:23:47.573Z,0.72
2023-02-20T05:26:22.249Z,0.68
2023-02-20T05:28:50.695Z,0.66
2023-02-20T05:31:19.354Z,0.63
2023-02-20T05:33:47.998Z,0.62
2023-02-20T05:36:17.459Z,0.60
2023-02-20T05:38:49.222Z,0.57
2023-02-20T05:41:19.636Z,0.55
2023-02-20T05:43:48.981Z,0.53
2023-02-20T05:46:18.162Z,0.52
2023-02-20T05:48:50.620Z,0.50
2023-02-20T05:51:27.702Z,0.49
2023-02-20T05:53:56.679Z,0.47
2023-02-20T05:56:25.528Z,0.47
2023-02-20T05:58:53.924Z,0.46
2023-02-20T06:01:29.091Z,0.44
2023-02-20T06:03:57.749Z,0.43
2023-02-20T06:06:33.991Z,0.42
2023-02-20T06:09:02.874Z,0.41
2023-02-20T06:11:31.139Z,0.41
2023-02-20T06:13:59.482Z,0.41
2023-02-20T06:16:30.411Z,0.40
2023-02-20T06:19:02.780Z,0.40
2023-02-20T06:21:36.217Z,0.42
2023-02-20T06:24:04.835Z,0.45
2023-02-20T06:26:33.159Z,0.49
2023-02-20T06:29:01.501Z,0.55
2023-02-20T06:31:29.944Z,0.62
2023-02-20T06:33:58.471Z,0.73
2023-02-20T06:36:30.626Z,0.84
2023-02-20T06:38:59.415Z,0.97
2023-02-20T06:41:27.887Z,1.10
2023-02-20T06:43:56.521Z,1.21
2023-02-20T06:46:25.515Z,1.30
2023-02-20T06:48:58.136Z,1.39
2023-02-20T06:51:30.919Z,1.47
2023-02-20T06:54:01.032Z,1.53
2023-02-20T06:56:32.828Z,1.60
2023-02-20T06:59:04.425Z,1.66
2023-02-20T07:01:40.402Z,1.73
2023-02-20T07:04:17.772Z,1.79
2023-02-20T07:06:47.439Z,1.86
2023-02-20T07:09:16.581Z,1.93
2023-02-20T07:11:44.995Z,1.99
2023-02-20T07:14:14.105Z,2.04
2023-02-20T07:16:42.472Z,2.08
2023-02-20T07:19:10.829Z,2.11
2023-02-20T07:21:39.468Z,2.16
2023-02-20T07:24:08.490Z,2.20
2023-02-20T07:26:39.642Z,2.26
2023-02-20T07:29:08.430Z,2.32
2023-02-20T07:31:39.271Z,2.40
2023-02-20T07:34:08.497Z,2.47
2023-02-20T07:36:38.402Z,2.52
2023-02-20T07:39:06.918Z,2.59
2023-02-20T07:41:36.260Z,2.64
2023-02-20T07:44:15.019Z,2.70
2023-02-20T07:46:43.529Z,2.77
2023-02-20T07:49:11.902Z,2.85
2023-02-20T07:51:40.235Z,2.93
2023-02-20T07:54:08.640Z,3.00
2023-02-20T07:56:36.936Z,3.09
2023-02-20T07:59:05.484Z,3.19
2023-02-20T08:01:33.895Z,3.29
2023-02-20T08:04:02.385Z,3.37
2023-02-20T08:06:30.820Z,3.42
2023-02-20T08:08:59.373Z,3.50
2023-02-20T08:11:27.932Z,3.58
2023-02-20T08:13:56.284Z,3.68
2023-02-20T08:16:27.139Z,3.79
2023-02-20T08:18:55.623Z,3.90
2023-02-20T08:21:24.019Z,4.00
2023-02-20T08:23:52.841Z,4.10
2023-02-20T08:26:21.360Z,4.18
2023-02-20T08:28:50.707Z,4.30
2023-02-20T08:31:31.350Z,4.41
2023-02-20T08:34:00.615Z,4.51
2023-02-20T08:36:29.408Z,4.57
2023-02-20T08:38:57.971Z,4.63
2023-02-20T08:41:26.660Z,4.70
2023-02-20T08:43:55.237Z,4.78
2023-02-20T08:46:23.600Z,4.89
2023-02-20T08:48:51.949Z,5.03
2023-02-20T08:51:22.099Z,5.19
2023-02-20T08:53:50.591Z,5.33
2023-02-20T08:56:20.237Z,5.50
2023-02-20T08:58:48.608Z,5.63
2023-02-20T09:01:16.922Z,5.71
2023-02-20T09:03:45.299Z,5.71
2023-02-20T09:06:14.469Z,5.64
2023-02-20T09:08:44.150Z,5.58
2023-02-20T09:11:12.553Z,5.54
2023-02-20T09:13:45.856Z,5.50
2023-02-20T09:16:19.043Z,5.47
2023-02-20T09:18:48.349Z,5.46
2023-02-20T09:21:20.006Z,5.49
2023-02-20T09:23:48.970Z,5.56
2023-02-20T09:26:17.384Z,5.61
2023-02-20T09:28:45.644Z,5.67
2023-02-20T09:31:14.256Z,5.69
2023-02-20T09:33:51.144Z,5.69
2023-02-20T09:36:20.152Z,5.71
2023-02-20T09:38:48.664Z,5.73
2023-02-20T09:41:49.247Z,5.77
2023-02-20T09:44:20.592Z,5.82
2023-02-20T09:46:51.055Z,5.85
2023-02-20T09:49:25.942Z,5.89
2023-02-20T09:51:59.477Z,5.94
2023-02-20T09:54:40.392Z,5.96
2023-02-20T09:57:17.042Z,6.05
2023-02-20T09:59:52.893Z,6.11
2023-02-20T10:02:27.453Z,6.13
2023-02-20T10:05:04.743Z,6.12
2023-02-20T10:07:37.022Z,6.07
2023-02-20T10:10:17.350Z,6.01
2023-02-20T10:13:08.205Z,5.97
2023-02-20T10:15:59.879Z,5.95
2023-02-20T10:18:46.376Z,5.94
2023-02-20T10:21:45.120Z,5.95
2023-02-20T10:24:53.647Z,5.96
2023-02-20T10:27:31.307Z,5.98
2023-02-20T10:30:02.658Z,5.97
2023-02-20T10:32:45.450Z,5.96
2023-02-20T10:35:21.669Z,5.94
2023-02-20T10:37:56.522Z,5.91
2023-02-20T10:40:24.877Z,5.91
2023-02-20T10:43:20.734Z,5.97
2023-02-20T10:46:00.307Z,6.03
2023-02-20T10:48:32.568Z,6.05
2023-02-20T10:51:09.326Z,6.06
2023-02-20T10:53:40.800Z,6.05
2023-02-20T10:56:13.086Z,6.06
2023-02-20T10:58:59.759Z,6.06
2023-02-20T11:01:28.606Z,6.07
2023-02-20T11:04:06.259Z,6.09
2023-02-20T11:07:02.334Z,6.11
2023-02-20T11:09:31.341Z,6.16
2023-02-20T11:12:00.613Z,6.20
2023-02-20T11:14:40.142Z,6.24
2023-02-20T11:17:16.242Z,6.28
2023-02-20T11:19:51.245Z,6.34
2023-02-20T11:22:37.920Z,6.42
2023-02-20T11:25:34.342Z,6.51
2023-02-20T11:28:26.576Z,6.59
2023-02-20T11:31:03.564Z,6.67
2023-02-20T11:33:37.491Z,6.72
2023-02-20T11:36:28.347Z,6.77
2023-02-20T11:39:00.318Z,6.81
2023-02-20T11:41:33.647Z,6.85
2023-02-20T11:44:14.682Z,6.91
2023-02-20T11:46:44.140Z,6.98
2023-02-20T11:49:25.569Z,7.02
2023-02-20T11:52:08.850Z,7.03
2023-02-20T11:54:38.703Z,7.03
2023-02-20T11:57:25.586Z,7.05
2023-02-20T12:00:20.121Z,7.09
2023-02-20T12:03:08.716Z,7.14
2023-02-20T12:05:41.896Z,7.19
2023-02-20T12:08:38.747Z,7.22
2023-02-20T12:11:19.664Z,7.27
2023-02-20T12:13:50.560Z,7.31
2023-02-20T12:16:39.212Z,7.34
2023-02-20T12:19:14.228Z,7.37
2023-02-20T12:21:54.940Z,7.37
2023-02-20T12:25:01.610Z,7.38
2023-02-20T12:27:48.927Z,7.39
2023-02-20T12:30:25.737Z,7.43
2023-02-20T12:33:06.342Z,7.50
2023-02-20T12:35:39.960Z,7.56
2023-02-20T12:38:15.419Z,7.61
2023-02-20T12:41:02.288Z,7.66
2023-02-20T12:43:40.149Z,7.75
2023-02-20T12:46:23.755Z,7.84
2023-02-20T12:49:10.215Z,7.93
2023-02-20T12:51:42.147Z,7.99
2023-02-20T12:54:19.698Z,8.01
2023-02-20T12:56:53.721Z,8.01
2023-02-20T12:59:26.191Z,8.01
2023-02-20T13:01:55.888Z,8.00
2023-02-20T13:04:46.091Z,8.01
2023-02-20T13:07:22.384Z,8.04
2023-02-20T13:10:04.788Z,8.07
2023-02-20T13:12:33.190Z,8.13
2023-02-20T13:15:35.593Z,8.21
2023-02-20T13:18:06.985Z,8.33
2023-02-20T13:21:12.664Z,8.44
2023-02-20T13:23:42.280Z,8.55
2023-02-20T13:26:32.809Z,8.57
2023-02-20T13:29:14.894Z,8.49
2023-02-20T13:31:50.016Z,8.39
2023-02-20T13:34:18.357Z,8.32
2023-02-20T13:36:50.887Z,8.30
2023-02-20T13:39:19.309Z,8.28
2023-02-20T13:41:54.045Z,8.24
2023-02-20T13:44:38.761Z,8.22
2023-02-20T13:47:27.027Z,8.21
2023-02-20T13:50:00.052Z,8.23
2023-02-20T13:52:35.456Z,8.26
2023-02-20T13:55:17.902Z,8.30
2023-02-20T13:57:54.919Z,8.35
2023-02-20T14:01:01.726Z,8.39
2023-02-20T14:03:34.767Z,8.44
2023-02-20T14:06:06.339Z,8.47
2023-02-20T14:08:37.353Z,8.50
2023-02-20T14:11:33.580Z,8.52
2023-02-20T14:14:33.597Z,8.54
2023-02-20T14:17:08.407Z,8.53
2023-02-20T14:19:42.499Z,8.51
2023-02-20T14:22:23.822Z,8.47
2023-02-20T14:25:17.449Z,8.46
2023-02-20T14:27:49.410Z,8.44
2023-02-20T14:30:26.235Z,8.42
2023-02-20T14:32:56.790Z,8.39
2023-02-20T14:35:49.459Z,8.34
2023-02-20T14:39:06.279Z,8.29
2023-02-20T14:41:34.768Z,8.23
2023-02-20T14:44:06.735Z,8.20
2023-02-20T14:46:37.467Z,8.16
2023-02-20T14:49:10.423Z,8.12
2023-02-20T14:51:39.110Z,8.11
2023-02-20T14:54:27.686Z,8.09
2023-02-20T14:56:56.155Z,8.09
2023-02-20T14:59:29.301Z,8.07
2023-02-20T15:02:01.656Z,8.04
2023-02-20T15:04:31.053Z,8.01
2023-02-20T15:07:06.516Z,7.99
2023-02-20T15:09:44.235Z,7.98
2023-02-20T15:12:22.788Z,7.96
2023-02-20T15:15:18.012Z,7.96
2023-02-20T15:17:46.467Z,7.97
2023-02-20T15:20:39.182Z,7.97
2023-02-20T15:23:18.747Z,8.00
2023-02-20T15:25:47.596Z,8.01
2023-02-20T15:28:18.845Z,7.99
2023-02-20T15:31:07.215Z,7.99
2023-02-20T15:33:47.610Z,7.99
2023-02-20T15:36:21.208Z,8.00
2023-02-20T15:38:55.942Z,8.02
2023-02-20T15:41:24.505Z,8.04
2023-02-20T15:43:53.008Z,8.04
2023-02-20T15:46:21.509Z,8.05
2023-02-20T15:48:49.890Z,8.05
2023-02-20T15:51:22.164Z,8.05
2023-02-20T15:53:53.862Z,8.00
2023-02-20T15:56:22.485Z,7.99
2023-02-20T15:58:51.507Z,8.00
2023-02-20T16:01:19.998Z,8.02
2023-02-20T16:03:52.837Z,8.04
2023-02-20T16:06:23.559Z,8.05
2023-02-20T16:08:53.463Z,8.03
2023-02-20T16:11:25.812Z,8.02
2023-02-20T16:14:01.143Z,8.00
2023-02-20T16:16:39.163Z,7.96
2023-02-20T16:19:15.747Z,7.94
2023-02-20T16:21:56.896Z,7.94
2023-02-20T16:24:27.489Z,7.97
2023-02-20T16:26:56.020Z,7.98
2023-02-20T16:29:34.642Z,8.01
2023-02-20T16:32:03.200Z,8.00
2023-02-20T16:34:34.042Z,7.98
2023-02-20T16:37:03.413Z,7.96
2023-02-20T16:39:31.764Z,7.96
2023-02-20T16:42:01.483Z,7.99
2023-02-20T16:44:41.765Z,8.05
2023-02-20T16:47:16.997Z,8.08
2023-02-20T16:49:49.159Z,8.10
2023-02-20T16:52:22.099Z,8.12
2023-02-20T16:54:50.750Z,8.16
2023-02-20T16:57:19.221Z,8.18
2023-02-20T16:59:47.575Z,8.21
2023-02-20T17:02:19.691Z,8.22
2023-02-20T17:04:48.941Z,8.23
2023-02-20T17:07:18.922Z,8.26
2023-02-20T17:10:13.102Z,8.29
2023-02-20T17:12:41.658Z,8.33
2023-02-20T17:15:13.299Z,8.36
2023-02-20T17:17:42.492Z,8.39
2023-02-20T17:20:18.632Z,8.45
2023-02-20T17:23:02.732Z,8.48
2023-02-20T17:25:35.113Z,8.52
2023-02-20T17:28:05.705Z,8.57
2023-02-20T17:30:34.227Z,8.59
2023-02-20T17:33:02.681Z,8.61
2023-02-20T17:35:31.091Z,8.64
2023-02-20T17:37:59.586Z,8.68
2023-02-20T17:40:28.011Z,8.71
2023-02-20T17:42:56.944Z,8.72
2023-02-20T17:45:25.282Z,8.73
2023-02-20T17:47:53.643Z,8.74
2023-02-20T17:50:22.233Z,8.74
2023-02-20T17:52:54.863Z,8.79
2023-02-20T17:55:27.130Z,8.82
2023-02-20T17:57:55.506Z,8.82
2023-02-20T18:00:24.179Z,8.84
2023-02-20T18:02:52.550Z,8.86
2023-02-20T18:05:21.001Z,8.86
2023-02-20T18:07:49.432Z,8.87
2023-02-20T18:10:21.492Z,8.88
2023-02-20T18:13:02.914Z,8.88
2023-02-20T18:15:33.626Z,8.91
2023-02-20T18:18:03.353Z,8.97
2023-02-20T18:20:31.874Z,9.02
2023-02-20T18:23:01.301Z,9.06
2023-02-20T18:25:39.941Z,9.07
2023-02-20T18:28:10.229Z,9.06
2023-02-20T18:30:39.675Z,9.05
2023-02-20T18:33:08.675Z,9.07
2023-02-20T18:35:37.565Z,9.09
2023-02-20T18:38:06.648Z,9.13
2023-02-20T18:40:35.732Z,9.16
2023-02-20T18:43:04.176Z,9.18
2023-02-20T18:45:32.664Z,9.20
2023-02-20T18:48:01.101Z,9.22
2023-02-20T18:50:29.436Z,9.23
2023-02-20T18:52:58.350Z,9.23
2023-02-20T18:55:26.810Z,9.25
2023-02-20T18:57:58.000Z,9.26
2023-02-20T19:00:30.586Z,9.26
2023-02-20T19:03:01.280Z,9.29
2023-02-20T19:05:29.966Z,9.35
2023-02-20T19:07:58.946Z,9.40
2023-02-20T19:10:28.005Z,9.45
2023-02-20T19:12:57.021Z,9.49
2023-02-20T19:15:26.132Z,9.52
2023-02-20T19:17:54.816Z,9.60
2023-02-20T19:20:29.479Z,9.67
2023-02-20T19:22:59.226Z,9.77
2023-02-20T19:25:27.809Z,9.87
2023-02-20T19:27:56.593Z,9.97
2023-02-20T19:30:25.081Z,10.06
2023-02-20T19:32:53.677Z,10.10
2023-02-20T19:35:22.207Z,10.16
2023-02-20T19:37:50.701Z,10.24
2023-02-20T19:40:20.739Z,10.31
2023-02-20T19:43:20.928Z,10.33
2023-02-20T19:45:56.353Z,10.32
2023-02-20T19:48:37.424Z,10.33
2023-02-20T19:51:08.788Z,10.33
2023-02-20T19:53:37.191Z,10.34
2023-02-20T19:56:09.244Z,10.34
2023-02-20T19:58:42.539Z,10.33
2023-02-20T20:01:19.360Z,10.31
2023-02-20T20:03:51.412Z,10.33
2023-02-20T20:06:27.195Z,10.38
2023-02-20T20:09:11.329Z,10.42
2023-02-20T20:11:42.305Z,10.42
2023-02-20T20:14:10.777Z,10.39
2023-02-20T20:16:41.113Z,10.39
2023-02-20T20:19:11.102Z,10.36
2023-02-20T20:21:39.947Z,10.32
2023-02-20T20:24:13.293Z,10.33
2023-02-20T20:26:41.962Z,10.35
2023-02-20T20:29:10.627Z,10.37
2023-02-20T20:31:42.048Z,10.37
2023-02-20T20:34:36.388Z,10.32
2023-02-20T20:37:04.931Z,10.29
2023-02-20T20:39:33.532Z,10.27
2023-02-20T20:42:01.861Z,10.26
2023-02-20T20:44:30.336Z,10.29
2023-02-20T20:46:58.714Z,10.31
2023-02-20T20:49:27.360Z,10.29
2023-02-20T20:51:56.061Z,10.25
2023-02-20T20:54:24.693Z,10.22
2023-02-20T20:56:53.189Z,10.21
2023-02-20T20:59:21.736Z,10.18
2023-02-20T21:01:50.552Z,10.15
2023-02-20T21:04:19.132Z,10.11
2023-02-20T21:06:47.593Z,10.13
2023-02-20T21:09:16.190Z,10.15
2023-02-20T21:11:45.103Z,10.17
2023-02-20T21:14:13.974Z,10.19
2023-02-20T21:16:42.542Z,10.20
2023-02-20T21:19:15.790Z,10.19
2023-02-20T21:21:44.377Z,10.19
2023-02-20T21:24:13.453Z,10.19
2023-02-20T21:26:41.811Z,10.20
2023-02-20T21:29:10.761Z,10.23
2023-02-20T21:31:43.021Z,10.25
2023-02-20T21:34:13.400Z,10.23
2023-02-20T21:36:44.038Z,10.23
2023-02-20T21:39:12.589Z,10.28
2023-02-20T21:42:23.802Z,10.31
2023-02-20T21:44:53.263Z,10.31
2023-02-20T21:47:21.716Z,10.31
2023-02-20T21:49:50.118Z,10.32
2023-02-20T21:52:19.922Z,10.33
2023-02-20T21:54:50.421Z,10.35
2023-02-20T21:57:20.153Z,10.35
2023-02-20T21:59:48.532Z,10.34
2023-02-20T22:02:18.879Z,10.33
2023-02-20T22:04:47.418Z,10.32
2023-02-20T22:07:35.352Z,10.36
2023-02-20T22:10:23.381Z,10.41
2023-02-20T22:13:10.826Z,10.43
2023-02-20T22:16:00.100Z,10.48
2023-02-20T22:18:50.106Z,10.52
2023-02-20T22:21:39.756Z,10.51
2023-02-20T22:24:37.406Z,10.50
2023-02-20T22:27:29.045Z,10.48
2023-02-20T22:30:16.062Z,10.47
2023-02-20T22:33:04.424Z,10.43
2023-02-20T22:35:51.425Z,10.41
2023-02-20T22:38:38.821Z,10.36
2023-02-20T22:41:25.803Z,10.34
2023-02-20T22:44:13.139Z,10.32
2023-02-20T22:47:05.558Z,10.27
2023-02-20T22:50:01.469Z,10.27
2023-02-20T22:52:48.496Z,10.28
2023-02-20T22:55:35.539Z,10.25
2023-02-20T22:58:23.472Z,10.23
2023-02-20T23:01:10.731Z,10.25
2023-02-20T23:03:58.714Z,10.25
2023-02-20T23:06:46.279Z,10.24
2023-02-20T23:09:33.391Z,10.21
2023-02-20T23:12:20.743Z,10.20
2023-02-20T23:15:07.646Z,10.17
2023-02-20T23:17:54.832Z,10.19
2023-02-20T23:20:42.760Z,10.18
2023-02-20T23:23:32.203Z,10.19
2023-02-20T23:26:19.244Z,10.18
2023-02-20T23:29:06.515Z,10.17
2023-02-20T23:32:00.941Z,10.15
2023-02-20T23:34:49.789Z,10.16
2023-02-20T23:37:36.807Z,10.24
2023-02-20T23:40:35.931Z,10.26
2023-02-20T23:43:26.279Z,10.22
2023-02-20T23:46:13.799Z,10.19
2023-02-20T23:49:01.184Z,10.17
2023-02-20T23:51:50.755Z,10.16
2023-02-20T23:54:37.711Z,10.15
2023-02-20T23:57:25.508Z,10.12
